sensor_id;sensor_type;location;lat;lon;timestamp;temperature;humidity
7129;DHT22;3606;52.930;8.644;2023-07-28T00:01:56;17.70;99.90
7129;DHT22;3606;52.930;8.644;2023-07-28T00:04:21;17.70;99.90
7129;DHT22;3606;52.930;8.644;2023-07-28T00:06:47;17.70;99.90
7129;DHT22;3606;52.930;8.644;2023-07-28T00:09:13;17.70;99.90
7129;DHT22;3606;52.930;8.644;2023-07-28T00:11:38;17.70;99.90
7129;DHT22;3606;52.930;8.644;2023-07-28T00:14:04;17.70;99.90
7129;DHT22;3606;52.930;8.644;2023-07-28T00:16:29;17.70;99.90
7129;DHT22;3606;52.930;8.644;2023-07-28T00:18:55;17.70;99.90
7129;DHT22;3606;52.930;8.644;2023-07-28T00:21:20;17.70;99.90
7129;DHT22;3606;52.930;8.644;2023-07-28T00:23:46;17.70;99.90
7129;DHT22;3606;52.930;8.644;2023-07-28T00:26:11;17.70;99.90
7129;DHT22;3606;52.930;8.644;2023-07-28T00:28:37;17.70;99.90
7129;DHT22;3606;52.930;8.644;2023-07-28T00:31:02;17.70;99.90
7129;DHT22;3606;52.930;8.644;2023-07-28T00:33:28;17.80;99.90
7129;DHT22;3606;52.930;8.644;2023-07-28T00:35:53;17.70;99.90
7129;DHT22;3606;52.930;8.644;2023-07-28T00:38:19;17.70;99.90
7129;DHT22;3606;52.930;8.644;2023-07-28T00:40:45;17.70;99.90
7129;DHT22;3606;52.930;8.644;2023-07-28T00:43:10;17.70;99.90
7129;DHT22;3606;52.930;8.644;2023-07-28T00:45:36;17.70;99.90
7129;DHT22;3606;52.930;8.644;2023-07-28T00:48:01;17.70;99.90
7129;DHT22;3606;52.930;8.644;2023-07-28T00:50:27;17.70;99.90
7129;DHT22;3606;52.930;8.644;2023-07-28T00:52:55;17.60;99.90
7129;DHT22;3606;52.930;8.644;2023-07-28T00:55:21;17.60;99.90
7129;DHT22;3606;52.930;8.644;2023-07-28T00:57:47;17.60;99.90
7129;DHT22;3606;52.930;8.644;2023-07-28T01:00:13;17.60;99.90
7129;DHT22;3606;52.930;8.644;2023-07-28T01:02:38;17.60;99.90
7129;DHT22;3606;52.930;8.644;2023-07-28T01:05:05;17.60;99.90
7129;DHT22;3606;52.930;8.644;2023-07-28T01:07:38;17.70;99.90
7129;DHT22;3606;52.930;8.644;2023-07-28T01:10:16;17.70;99.90
7129;DHT22;3606;52.930;8.644;2023-07-28T01:12:43;17.60;99.90
7129;DHT22;3606;52.930;8.644;2023-07-28T01:15:09;17.60;99.90
7129;DHT22;3606;52.930;8.644;2023-07-28T01:17:34;17.60;99.90
7129;DHT22;3606;52.930;8.644;2023-07-28T01:20:01;17.60;99.90
7129;DHT22;3606;52.930;8.644;2023-07-28T01:28:07;17.60;99.90
7129;DHT22;3606;52.930;8.644;2023-07-28T01:30:33;17.60;99.90
7129;DHT22;3606;52.930;8.644;2023-07-28T01:32:59;17.60;99.90
7129;DHT22;3606;52.930;8.644;2023-07-28T01:35:26;17.60;99.90
7129;DHT22;3606;52.930;8.644;2023-07-28T01:37:51;17.60;99.90
7129;DHT22;3606;52.930;8.644;2023-07-28T01:40:18;17.60;99.90
7129;DHT22;3606;52.930;8.644;2023-07-28T01:42:43;17.70;99.90
7129;DHT22;3606;52.930;8.644;2023-07-28T01:45:09;17.60;99.90
7129;DHT22;3606;52.930;8.644;2023-07-28T01:47:35;17.60;99.90
7129;DHT22;3606;52.930;8.644;2023-07-28T01:50:01;17.60;99.90
7129;DHT22;3606;52.930;8.644;2023-07-28T01:52:26;17.60;99.90
7129;DHT22;3606;52.930;8.644;2023-07-28T01:54:52;17.70;99.90
7129;DHT22;3606;52.930;8.644;2023-07-28T01:57:17;17.70;99.90
7129;DHT22;3606;52.930;8.644;2023-07-28T01:59:43;17.70;99.90
7129;DHT22;3606;52.930;8.644;2023-07-28T02:02:09;17.70;99.90
7129;DHT22;3606;52.930;8.644;2023-07-28T02:04:35;17.70;99.90
7129;DHT22;3606;52.930;8.644;2023-07-28T02:07:00;17.60;99.90
7129;DHT22;3606;52.930;8.644;2023-07-28T02:09:26;17.70;99.90
7129;DHT22;3606;52.930;8.644;2023-07-28T02:11:52;17.70;99.90
7129;DHT22;3606;52.930;8.644;2023-07-28T02:14:18;17.70;99.90
7129;DHT22;3606;52.930;8.644;2023-07-28T02:16:43;17.60;99.90
7129;DHT22;3606;52.930;8.644;2023-07-28T02:19:09;17.60;99.90
7129;DHT22;3606;52.930;8.644;2023-07-28T02:21:34;17.60;99.90
7129;DHT22;3606;52.930;8.644;2023-07-28T02:24:00;17.70;99.90
7129;DHT22;3606;52.930;8.644;2023-07-28T02:26:26;17.70;99.90
7129;DHT22;3606;52.930;8.644;2023-07-28T02:28:51;17.70;99.90
7129;DHT22;3606;52.930;8.644;2023-07-28T02:31:17;17.70;99.90
7129;DHT22;3606;52.930;8.644;2023-07-28T02:33:43;17.70;99.90
7129;DHT22;3606;52.930;8.644;2023-07-28T02:36:08;17.70;99.90
7129;DHT22;3606;52.930;8.644;2023-07-28T02:38:34;17.70;99.90
7129;DHT22;3606;52.930;8.644;2023-07-28T02:40:59;17.70;99.90
7129;DHT22;3606;52.930;8.644;2023-07-28T02:43:25;17.70;99.90
7129;DHT22;3606;52.930;8.644;2023-07-28T02:45:54;17.70;99.90
7129;DHT22;3606;52.930;8.644;2023-07-28T02:48:20;17.70;99.90
7129;DHT22;3606;52.930;8.644;2023-07-28T02:50:50;17.70;99.90
7129;DHT22;3606;52.930;8.644;2023-07-28T02:53:16;17.70;99.90
7129;DHT22;3606;52.930;8.644;2023-07-28T02:55:42;17.80;99.90
7129;DHT22;3606;52.930;8.644;2023-07-28T02:58:09;17.70;99.90
7129;DHT22;3606;52.930;8.644;2023-07-28T03:00:40;17.80;99.90
7129;DHT22;3606;52.930;8.644;2023-07-28T03:03:07;17.70;99.90
7129;DHT22;3606;52.930;8.644;2023-07-28T03:05:33;17.70;99.90
7129;DHT22;3606;52.930;8.644;2023-07-28T03:07:59;17.70;99.90
7129;DHT22;3606;52.930;8.644;2023-07-28T03:10:25;17.80;99.90
7129;DHT22;3606;52.930;8.644;2023-07-28T03:12:50;17.70;99.90
7129;DHT22;3606;52.930;8.644;2023-07-28T03:15:16;17.80;99.90
7129;DHT22;3606;52.930;8.644;2023-07-28T03:17:42;17.80;99.90
7129;DHT22;3606;52.930;8.644;2023-07-28T03:20:08;17.70;99.90
7129;DHT22;3606;52.930;8.644;2023-07-28T03:22:33;17.80;99.90
7129;DHT22;3606;52.930;8.644;2023-07-28T03:24:59;17.70;99.90
7129;DHT22;3606;52.930;8.644;2023-07-28T03:27:24;17.80;99.90
7129;DHT22;3606;52.930;8.644;2023-07-28T03:29:51;17.70;99.90
7129;DHT22;3606;52.930;8.644;2023-07-28T03:32:16;17.80;99.90
7129;DHT22;3606;52.930;8.644;2023-07-28T03:34:42;17.70;99.90
7129;DHT22;3606;52.930;8.644;2023-07-28T03:37:07;17.70;99.90
7129;DHT22;3606;52.930;8.644;2023-07-28T03:39:34;17.80;99.90
7129;DHT22;3606;52.930;8.644;2023-07-28T03:41:59;17.80;99.90
7129;DHT22;3606;52.930;8.644;2023-07-28T03:44:25;17.80;99.90
7129;DHT22;3606;52.930;8.644;2023-07-28T03:46:50;17.70;99.90
7129;DHT22;3606;52.930;8.644;2023-07-28T03:49:16;17.80;99.90
7129;DHT22;3606;52.930;8.644;2023-07-28T03:51:42;17.70;99.90
7129;DHT22;3606;52.930;8.644;2023-07-28T03:54:07;17.70;99.90
7129;DHT22;3606;52.930;8.644;2023-07-28T03:56:33;17.70;99.90
7129;DHT22;3606;52.930;8.644;2023-07-28T03:58:59;17.80;99.90
7129;DHT22;3606;52.930;8.644;2023-07-28T04:01:25;17.70;99.90
7129;DHT22;3606;52.930;8.644;2023-07-28T04:03:50;17.80;99.90
7129;DHT22;3606;52.930;8.644;2023-07-28T04:06:16;17.80;99.90
7129;DHT22;3606;52.930;8.644;2023-07-28T04:08:41;17.70;99.90
7129;DHT22;3606;52.930;8.644;2023-07-28T04:11:07;17.80;99.90
7129;DHT22;3606;52.930;8.644;2023-07-28T04:13:33;17.80;99.90
7129;DHT22;3606;52.930;8.644;2023-07-28T04:15:59;17.70;99.90
7129;DHT22;3606;52.930;8.644;2023-07-28T04:18:25;17.70;99.90
7129;DHT22;3606;52.930;8.644;2023-07-28T04:20:51;17.70;99.90
7129;DHT22;3606;52.930;8.644;2023-07-28T04:23:16;17.80;99.90
7129;DHT22;3606;52.930;8.644;2023-07-28T04:25:42;17.80;99.90
7129;DHT22;3606;52.930;8.644;2023-07-28T04:28:07;17.80;99.90
7129;DHT22;3606;52.930;8.644;2023-07-28T04:30:33;17.80;99.90
7129;DHT22;3606;52.930;8.644;2023-07-28T04:32:58;17.80;99.90
7129;DHT22;3606;52.930;8.644;2023-07-28T04:35:24;17.80;99.90
7129;DHT22;3606;52.930;8.644;2023-07-28T04:37:49;17.80;99.90
7129;DHT22;3606;52.930;8.644;2023-07-28T04:40:15;17.80;99.90
7129;DHT22;3606;52.930;8.644;2023-07-28T04:42:40;17.80;99.90
7129;DHT22;3606;52.930;8.644;2023-07-28T04:45:06;17.80;99.90
7129;DHT22;3606;52.930;8.644;2023-07-28T04:47:32;17.80;99.90
7129;DHT22;3606;52.930;8.644;2023-07-28T04:49:58;17.90;99.90
7129;DHT22;3606;52.930;8.644;2023-07-28T04:52:23;17.90;99.90
7129;DHT22;3606;52.930;8.644;2023-07-28T04:54:49;17.90;99.90
7129;DHT22;3606;52.930;8.644;2023-07-28T04:57:15;17.90;99.90
7129;DHT22;3606;52.930;8.644;2023-07-28T04:59:40;18.00;99.90
7129;DHT22;3606;52.930;8.644;2023-07-28T05:02:06;18.00;99.90
7129;DHT22;3606;52.930;8.644;2023-07-28T05:04:32;18.00;99.90
7129;DHT22;3606;52.930;8.644;2023-07-28T05:06:57;18.00;99.90
7129;DHT22;3606;52.930;8.644;2023-07-28T05:09:23;18.10;99.90
7129;DHT22;3606;52.930;8.644;2023-07-28T05:11:49;17.90;99.90
7129;DHT22;3606;52.930;8.644;2023-07-28T05:14:14;18.00;99.90
7129;DHT22;3606;52.930;8.644;2023-07-28T05:16:40;18.00;99.90
7129;DHT22;3606;52.930;8.644;2023-07-28T05:19:06;18.00;99.90
7129;DHT22;3606;52.930;8.644;2023-07-28T05:21:32;18.00;99.90
7129;DHT22;3606;52.930;8.644;2023-07-28T05:23:58;18.10;99.90
7129;DHT22;3606;52.930;8.644;2023-07-28T05:26:24;18.30;99.90
7129;DHT22;3606;52.930;8.644;2023-07-28T05:28:50;18.20;99.90
7129;DHT22;3606;52.930;8.644;2023-07-28T05:31:16;18.40;99.90
7129;DHT22;3606;52.930;8.644;2023-07-28T05:33:41;18.30;99.90
7129;DHT22;3606;52.930;8.644;2023-07-28T05:36:07;18.20;99.90
7129;DHT22;3606;52.930;8.644;2023-07-28T05:38:33;18.20;99.90
7129;DHT22;3606;52.930;8.644;2023-07-28T05:40:59;18.40;99.90
7129;DHT22;3606;52.930;8.644;2023-07-28T05:43:32;18.20;99.90
7129;DHT22;3606;52.930;8.644;2023-07-28T05:45:59;18.30;99.90
7129;DHT22;3606;52.930;8.644;2023-07-28T05:48:24;18.30;99.90
7129;DHT22;3606;52.930;8.644;2023-07-28T05:50:50;18.40;99.90
7129;DHT22;3606;52.930;8.644;2023-07-28T05:53:20;18.30;99.90
7129;DHT22;3606;52.930;8.644;2023-07-28T05:55:46;18.30;99.90
7129;DHT22;3606;52.930;8.644;2023-07-28T05:58:12;18.10;99.90
7129;DHT22;3606;52.930;8.644;2023-07-28T06:00:41;18.00;99.90
7129;DHT22;3606;52.930;8.644;2023-07-28T06:03:09;18.30;99.90
7129;DHT22;3606;52.930;8.644;2023-07-28T06:05:35;18.20;99.90
7129;DHT22;3606;52.930;8.644;2023-07-28T06:08:01;18.20;99.90
7129;DHT22;3606;52.930;8.644;2023-07-28T06:10:26;18.40;99.90
7129;DHT22;3606;52.930;8.644;2023-07-28T06:12:52;18.20;99.90
7129;DHT22;3606;52.930;8.644;2023-07-28T06:15:17;18.30;99.90
7129;DHT22;3606;52.930;8.644;2023-07-28T06:17:43;18.30;99.90
7129;DHT22;3606;52.930;8.644;2023-07-28T06:20:09;18.40;99.90
7129;DHT22;3606;52.930;8.644;2023-07-28T06:22:35;18.40;99.90
7129;DHT22;3606;52.930;8.644;2023-07-28T06:25:01;18.20;99.90
7129;DHT22;3606;52.930;8.644;2023-07-28T06:27:26;18.30;99.90
7129;DHT22;3606;52.930;8.644;2023-07-28T06:29:52;18.30;99.90
7129;DHT22;3606;52.930;8.644;2023-07-28T06:32:18;18.30;99.90
7129;DHT22;3606;52.930;8.644;2023-07-28T06:34:45;18.20;99.90
7129;DHT22;3606;52.930;8.644;2023-07-28T06:37:11;18.30;99.90
7129;DHT22;3606;52.930;8.644;2023-07-28T06:39:37;18.30;99.90
7129;DHT22;3606;52.930;8.644;2023-07-28T06:42:02;18.40;99.90
7129;DHT22;3606;52.930;8.644;2023-07-28T06:44:28;18.50;99.90
7129;DHT22;3606;52.930;8.644;2023-07-28T06:46:53;18.40;99.90
7129;DHT22;3606;52.930;8.644;2023-07-28T06:49:19;18.30;99.90
7129;DHT22;3606;52.930;8.644;2023-07-28T06:51:45;18.40;99.90
7129;DHT22;3606;52.930;8.644;2023-07-28T06:54:10;18.40;99.90
7129;DHT22;3606;52.930;8.644;2023-07-28T06:56:38;18.50;99.90
7129;DHT22;3606;52.930;8.644;2023-07-28T06:59:04;18.60;99.90
7129;DHT22;3606;52.930;8.644;2023-07-28T07:01:30;18.60;99.90
7129;DHT22;3606;52.930;8.644;2023-07-28T07:03:56;18.90;99.90
7129;DHT22;3606;52.930;8.644;2023-07-28T07:06:21;18.90;99.90
7129;DHT22;3606;52.930;8.644;2023-07-28T07:08:47;19.00;99.90
7129;DHT22;3606;52.930;8.644;2023-07-28T07:11:13;18.70;99.90
7129;DHT22;3606;52.930;8.644;2023-07-28T07:13:38;18.90;99.90
7129;DHT22;3606;52.930;8.644;2023-07-28T07:16:04;18.90;99.90
7129;DHT22;3606;52.930;8.644;2023-07-28T07:18:31;18.80;99.90
7129;DHT22;3606;52.930;8.644;2023-07-28T07:21:01;18.60;99.90
7129;DHT22;3606;52.930;8.644;2023-07-28T07:23:28;18.50;99.90
7129;DHT22;3606;52.930;8.644;2023-07-28T07:25:53;18.50;99.90
7129;DHT22;3606;52.930;8.644;2023-07-28T07:28:19;18.50;99.90
7129;DHT22;3606;52.930;8.644;2023-07-28T07:30:45;18.50;99.90
7129;DHT22;3606;52.930;8.644;2023-07-28T07:33:10;18.70;99.90
7129;DHT22;3606;52.930;8.644;2023-07-28T07:35:37;18.50;99.90
7129;DHT22;3606;52.930;8.644;2023-07-28T07:38:04;18.70;99.90
7129;DHT22;3606;52.930;8.644;2023-07-28T07:40:34;18.60;99.90
7129;DHT22;3606;52.930;8.644;2023-07-28T07:43:00;19.00;99.90
7129;DHT22;3606;52.930;8.644;2023-07-28T07:45:25;19.10;99.90
7129;DHT22;3606;52.930;8.644;2023-07-28T07:47:51;19.20;99.90
7129;DHT22;3606;52.930;8.644;2023-07-28T07:50:17;19.20;99.90
7129;DHT22;3606;52.930;8.644;2023-07-28T07:52:42;19.20;99.90
7129;DHT22;3606;52.930;8.644;2023-07-28T07:55:09;19.60;99.90
7129;DHT22;3606;52.930;8.644;2023-07-28T07:57:36;19.70;99.90
7129;DHT22;3606;52.930;8.644;2023-07-28T08:00:02;19.80;99.90
7129;DHT22;3606;52.930;8.644;2023-07-28T08:02:28;19.70;99.90
7129;DHT22;3606;52.930;8.644;2023-07-28T08:04:53;20.00;99.90
7129;DHT22;3606;52.930;8.644;2023-07-28T08:07:19;20.10;99.90
7129;DHT22;3606;52.930;8.644;2023-07-28T08:09:45;20.20;99.90
7129;DHT22;3606;52.930;8.644;2023-07-28T08:12:11;20.30;99.90
7129;DHT22;3606;52.930;8.644;2023-07-28T08:14:37;20.60;99.90
7129;DHT22;3606;52.930;8.644;2023-07-28T08:17:03;20.60;99.90
7129;DHT22;3606;52.930;8.644;2023-07-28T08:19:29;20.30;99.90
7129;DHT22;3606;52.930;8.644;2023-07-28T08:21:54;20.10;99.90
7129;DHT22;3606;52.930;8.644;2023-07-28T08:24:20;19.90;99.90
7129;DHT22;3606;52.930;8.644;2023-07-28T08:26:46;19.80;99.90
7129;DHT22;3606;52.930;8.644;2023-07-28T08:29:11;19.80;99.90
7129;DHT22;3606;52.930;8.644;2023-07-28T08:31:37;19.80;99.90
7129;DHT22;3606;52.930;8.644;2023-07-28T08:34:03;19.80;99.90
7129;DHT22;3606;52.930;8.644;2023-07-28T08:36:28;20.20;99.90
7129;DHT22;3606;52.930;8.644;2023-07-28T08:38:54;20.40;99.90
7129;DHT22;3606;52.930;8.644;2023-07-28T08:41:20;20.50;99.90
7129;DHT22;3606;52.930;8.644;2023-07-28T08:43:45;20.60;99.90
7129;DHT22;3606;52.930;8.644;2023-07-28T08:46:11;20.60;99.90
7129;DHT22;3606;52.930;8.644;2023-07-28T08:48:37;20.60;99.90
7129;DHT22;3606;52.930;8.644;2023-07-28T08:51:03;20.70;99.90
7129;DHT22;3606;52.930;8.644;2023-07-28T08:53:33;20.70;99.90
7129;DHT22;3606;52.930;8.644;2023-07-28T08:55:59;20.60;99.90
7129;DHT22;3606;52.930;8.644;2023-07-28T08:58:24;20.50;99.90
7129;DHT22;3606;52.930;8.644;2023-07-28T09:00:51;20.60;99.90
7129;DHT22;3606;52.930;8.644;2023-07-28T09:03:18;20.90;99.90
7129;DHT22;3606;52.930;8.644;2023-07-28T09:05:45;21.40;99.90
7129;DHT22;3606;52.930;8.644;2023-07-28T09:08:16;22.10;99.90
7129;DHT22;3606;52.930;8.644;2023-07-28T09:10:46;23.00;99.90
7129;DHT22;3606;52.930;8.644;2023-07-28T09:13:16;24.10;99.90
7129;DHT22;3606;52.930;8.644;2023-07-28T09:15:42;24.80;99.90
7129;DHT22;3606;52.930;8.644;2023-07-28T09:18:12;25.20;99.90
7129;DHT22;3606;52.930;8.644;2023-07-28T09:20:39;25.60;99.90
7129;DHT22;3606;52.930;8.644;2023-07-28T09:23:07;25.50;99.90
7129;DHT22;3606;52.930;8.644;2023-07-28T09:25:34;25.30;99.90
7129;DHT22;3606;52.930;8.644;2023-07-28T09:28:00;24.90;99.90
7129;DHT22;3606;52.930;8.644;2023-07-28T09:30:26;24.90;99.90
7129;DHT22;3606;52.930;8.644;2023-07-28T09:32:54;25.50;92.90
7129;DHT22;3606;52.930;8.644;2023-07-28T09:35:20;25.30;1.00
7129;DHT22;3606;52.930;8.644;2023-07-28T09:37:48;25.30;1.00
7129;DHT22;3606;52.930;8.644;2023-07-28T09:40:17;25.10;1.00
7129;DHT22;3606;52.930;8.644;2023-07-28T09:42:44;25.20;5.20
7129;DHT22;3606;52.930;8.644;2023-07-28T09:45:11;25.30;1.00
7129;DHT22;3606;52.930;8.644;2023-07-28T09:47:37;25.40;1.00
7129;DHT22;3606;52.930;8.644;2023-07-28T09:50:07;25.30;1.00
7129;DHT22;3606;52.930;8.644;2023-07-28T09:52:47;25.20;1.00
7129;DHT22;3606;52.930;8.644;2023-07-28T09:55:14;25.70;1.00
7129;DHT22;3606;52.930;8.644;2023-07-28T09:57:52;26.30;1.00
7129;DHT22;3606;52.930;8.644;2023-07-28T10:00:20;26.00;1.00
7129;DHT22;3606;52.930;8.644;2023-07-28T10:02:46;25.40;1.00
7129;DHT22;3606;52.930;8.644;2023-07-28T10:05:12;25.40;1.00
7129;DHT22;3606;52.930;8.644;2023-07-28T10:07:41;26.00;1.00
7129;DHT22;3606;52.930;8.644;2023-07-28T10:10:09;26.40;1.00
7129;DHT22;3606;52.930;8.644;2023-07-28T10:12:54;26.90;1.00
7129;DHT22;3606;52.930;8.644;2023-07-28T10:15:21;26.90;1.00
7129;DHT22;3606;52.930;8.644;2023-07-28T10:17:55;27.20;1.00
7129;DHT22;3606;52.930;8.644;2023-07-28T10:20:38;26.50;1.00
7129;DHT22;3606;52.930;8.644;2023-07-28T10:23:21;25.60;1.00
7129;DHT22;3606;52.930;8.644;2023-07-28T10:25:58;24.70;1.00
7129;DHT22;3606;52.930;8.644;2023-07-28T10:31:08;23.80;1.00
7129;DHT22;3606;52.930;8.644;2023-07-28T10:33:45;24.00;1.00
7129;DHT22;3606;52.930;8.644;2023-07-28T10:39:02;24.90;1.00
7129;DHT22;3606;52.930;8.644;2023-07-28T10:41:37;25.70;1.00
7129;DHT22;3606;52.930;8.644;2023-07-28T10:44:03;26.00;1.00
7129;DHT22;3606;52.930;8.644;2023-07-28T10:46:29;25.70;1.00
7129;DHT22;3606;52.930;8.644;2023-07-28T10:48:54;25.20;1.00
7129;DHT22;3606;52.930;8.644;2023-07-28T10:51:25;24.90;1.00
7129;DHT22;3606;52.930;8.644;2023-07-28T10:53:54;24.00;1.00
7129;DHT22;3606;52.930;8.644;2023-07-28T10:56:20;23.70;1.00
7129;DHT22;3606;52.930;8.644;2023-07-28T10:58:45;23.40;1.80
7129;DHT22;3606;52.930;8.644;2023-07-28T11:01:11;23.60;1.00
7129;DHT22;3606;52.930;8.644;2023-07-28T11:03:37;24.00;1.00
7129;DHT22;3606;52.930;8.644;2023-07-28T11:06:03;25.30;1.00
7129;DHT22;3606;52.930;8.644;2023-07-28T11:08:29;26.70;1.00
7129;DHT22;3606;52.930;8.644;2023-07-28T11:10:55;26.80;1.00
7129;DHT22;3606;52.930;8.644;2023-07-28T11:13:21;26.20;1.00
7129;DHT22;3606;52.930;8.644;2023-07-28T11:15:47;25.40;1.00
7129;DHT22;3606;52.930;8.644;2023-07-28T11:18:15;24.50;1.00
7129;DHT22;3606;52.930;8.644;2023-07-28T11:20:41;24.10;8.70
7129;DHT22;3606;52.930;8.644;2023-07-28T11:23:07;23.80;1.00
7129;DHT22;3606;52.930;8.644;2023-07-28T11:25:34;23.80;1.00
7129;DHT22;3606;52.930;8.644;2023-07-28T11:28:02;23.80;1.00
7129;DHT22;3606;52.930;8.644;2023-07-28T11:30:31;23.70;1.00
7129;DHT22;3606;52.930;8.644;2023-07-28T11:32:57;23.60;1.00
7129;DHT22;3606;52.930;8.644;2023-07-28T11:35:23;23.70;1.00
7129;DHT22;3606;52.930;8.644;2023-07-28T11:37:51;24.00;1.00
7129;DHT22;3606;52.930;8.644;2023-07-28T11:40:20;24.60;1.00
7129;DHT22;3606;52.930;8.644;2023-07-28T11:42:54;25.60;1.00
7129;DHT22;3606;52.930;8.644;2023-07-28T11:45:21;26.90;1.00
7129;DHT22;3606;52.930;8.644;2023-07-28T11:47:59;27.70;1.00
7129;DHT22;3606;52.930;8.644;2023-07-28T11:50:34;28.60;1.00
7129;DHT22;3606;52.930;8.644;2023-07-28T11:53:01;28.20;1.00
7129;DHT22;3606;52.930;8.644;2023-07-28T11:55:26;28.30;1.00
7129;DHT22;3606;52.930;8.644;2023-07-28T11:57:53;28.20;1.00
7129;DHT22;3606;52.930;8.644;2023-07-28T12:00:19;27.90;1.00
7129;DHT22;3606;52.930;8.644;2023-07-28T12:03:07;27.00;1.00
7129;DHT22;3606;52.930;8.644;2023-07-28T12:05:35;26.20;1.00
7129;DHT22;3606;52.930;8.644;2023-07-28T12:08:01;25.50;1.00
7129;DHT22;3606;52.930;8.644;2023-07-28T12:10:28;25.20;1.00
7129;DHT22;3606;52.930;8.644;2023-07-28T12:12:54;24.50;1.00
7129;DHT22;3606;52.930;8.644;2023-07-28T12:15:30;24.20;1.00
7129;DHT22;3606;52.930;8.644;2023-07-28T12:18:15;23.70;1.00
7129;DHT22;3606;52.930;8.644;2023-07-28T12:20:46;23.40;12.50
7129;DHT22;3606;52.930;8.644;2023-07-28T12:23:20;23.40;1.00
7129;DHT22;3606;52.930;8.644;2023-07-28T12:25:47;23.60;1.00
7129;DHT22;3606;52.930;8.644;2023-07-28T12:28:12;23.90;1.00
7129;DHT22;3606;52.930;8.644;2023-07-28T12:30:38;24.30;1.00
7129;DHT22;3606;52.930;8.644;2023-07-28T12:33:05;25.30;1.00
7129;DHT22;3606;52.930;8.644;2023-07-28T12:35:32;26.30;1.00
7129;DHT22;3606;52.930;8.644;2023-07-28T12:38:01;26.90;1.00
7129;DHT22;3606;52.930;8.644;2023-07-28T12:40:29;27.40;1.00
7129;DHT22;3606;52.930;8.644;2023-07-28T12:42:56;28.30;1.00
7129;DHT22;3606;52.930;8.644;2023-07-28T12:45:22;28.80;1.00
7129;DHT22;3606;52.930;8.644;2023-07-28T12:47:48;29.40;1.00
7129;DHT22;3606;52.930;8.644;2023-07-28T12:50:13;29.70;99.90
7129;DHT22;3606;52.930;8.644;2023-07-28T12:52:39;30.70;99.90
7129;DHT22;3606;52.930;8.644;2023-07-28T12:55:04;30.90;99.90
7129;DHT22;3606;52.930;8.644;2023-07-28T12:57:31;31.10;99.90
7129;DHT22;3606;52.930;8.644;2023-07-28T12:59:57;30.90;99.90
7129;DHT22;3606;52.930;8.644;2023-07-28T13:02:23;31.10;99.90
7129;DHT22;3606;52.930;8.644;2023-07-28T13:04:48;31.60;99.90
7129;DHT22;3606;52.930;8.644;2023-07-28T13:07:14;30.70;99.90
7129;DHT22;3606;52.930;8.644;2023-07-28T13:09:40;29.90;99.90
7129;DHT22;3606;52.930;8.644;2023-07-28T13:12:07;29.10;99.90
7129;DHT22;3606;52.930;8.644;2023-07-28T13:14:33;28.50;99.90
7129;DHT22;3606;52.930;8.644;2023-07-28T13:16:59;27.90;99.90
7129;DHT22;3606;52.930;8.644;2023-07-28T13:19:24;27.00;99.90
7129;DHT22;3606;52.930;8.644;2023-07-28T13:21:50;26.20;1.00
7129;DHT22;3606;52.930;8.644;2023-07-28T13:24:16;25.40;1.30
7129;DHT22;3606;52.930;8.644;2023-07-28T13:26:41;24.70;1.00
7129;DHT22;3606;52.930;8.644;2023-07-28T13:29:07;24.30;31.80
7129;DHT22;3606;52.930;8.644;2023-07-28T13:31:33;24.70;1.00
7129;DHT22;3606;52.930;8.644;2023-07-28T13:33:59;26.50;1.00
7129;DHT22;3606;52.930;8.644;2023-07-28T13:36:24;28.40;1.00
7129;DHT22;3606;52.930;8.644;2023-07-28T13:38:50;29.60;1.00
7129;DHT22;3606;52.930;8.644;2023-07-28T13:41:15;29.70;99.90
7129;DHT22;3606;52.930;8.644;2023-07-28T13:43:41;29.00;99.90
7129;DHT22;3606;52.930;8.644;2023-07-28T13:46:07;28.40;1.00
7129;DHT22;3606;52.930;8.644;2023-07-28T13:48:33;27.80;1.00
7129;DHT22;3606;52.930;8.644;2023-07-28T13:51:01;27.60;1.00
7129;DHT22;3606;52.930;8.644;2023-07-28T13:53:27;27.40;1.00
7129;DHT22;3606;52.930;8.644;2023-07-28T13:55:54;26.90;1.00
7129;DHT22;3606;52.930;8.644;2023-07-28T13:58:21;26.50;1.00
7129;DHT22;3606;52.930;8.644;2023-07-28T14:00:46;26.00;1.00
7129;DHT22;3606;52.930;8.644;2023-07-28T14:03:12;25.60;1.00
7129;DHT22;3606;52.930;8.644;2023-07-28T14:05:38;25.10;21.10
7129;DHT22;3606;52.930;8.644;2023-07-28T14:08:04;24.80;1.00
7129;DHT22;3606;52.930;8.644;2023-07-28T14:10:29;24.50;70.60
7129;DHT22;3606;52.930;8.644;2023-07-28T14:12:57;23.80;99.90
7129;DHT22;3606;52.930;8.644;2023-07-28T14:15:23;23.40;99.90
7129;DHT22;3606;52.930;8.644;2023-07-28T14:17:48;23.50;99.90
7129;DHT22;3606;52.930;8.644;2023-07-28T14:20:14;24.10;99.90
7129;DHT22;3606;52.930;8.644;2023-07-28T14:22:40;24.60;37.50
7129;DHT22;3606;52.930;8.644;2023-07-28T14:25:05;25.60;1.00
7129;DHT22;3606;52.930;8.644;2023-07-28T14:27:31;27.00;1.00
7129;DHT22;3606;52.930;8.644;2023-07-28T14:29:57;28.20;1.00
7129;DHT22;3606;52.930;8.644;2023-07-28T14:32:22;27.80;1.00
7129;DHT22;3606;52.930;8.644;2023-07-28T14:34:48;27.30;1.00
7129;DHT22;3606;52.930;8.644;2023-07-28T14:37:13;27.10;1.00
7129;DHT22;3606;52.930;8.644;2023-07-28T14:39:39;26.90;1.00
7129;DHT22;3606;52.930;8.644;2023-07-28T14:42:05;26.80;1.00
7129;DHT22;3606;52.930;8.644;2023-07-28T14:44:30;26.60;1.00
7129;DHT22;3606;52.930;8.644;2023-07-28T14:46:56;26.70;1.00
7129;DHT22;3606;52.930;8.644;2023-07-28T14:49:21;26.70;1.00
7129;DHT22;3606;52.930;8.644;2023-07-28T14:51:47;27.20;1.00
7129;DHT22;3606;52.930;8.644;2023-07-28T14:54:12;28.30;1.00
7129;DHT22;3606;52.930;8.644;2023-07-28T14:56:38;29.60;99.90
7129;DHT22;3606;52.930;8.644;2023-07-28T14:59:04;30.60;99.90
7129;DHT22;3606;52.930;8.644;2023-07-28T15:01:30;31.20;99.90
7129;DHT22;3606;52.930;8.644;2023-07-28T15:03:56;31.90;99.90
7129;DHT22;3606;52.930;8.644;2023-07-28T15:06:22;32.00;99.90
7129;DHT22;3606;52.930;8.644;2023-07-28T15:08:47;32.00;99.90
7129;DHT22;3606;52.930;8.644;2023-07-28T15:11:13;31.50;99.90
7129;DHT22;3606;52.930;8.644;2023-07-28T15:13:39;31.20;99.90
7129;DHT22;3606;52.930;8.644;2023-07-28T15:16:06;31.30;99.90
7129;DHT22;3606;52.930;8.644;2023-07-28T15:18:32;31.20;99.90
7129;DHT22;3606;52.930;8.644;2023-07-28T15:20:57;31.40;99.90
7129;DHT22;3606;52.930;8.644;2023-07-28T15:23:25;31.50;99.90
7129;DHT22;3606;52.930;8.644;2023-07-28T15:25:51;31.90;99.90
7129;DHT22;3606;52.930;8.644;2023-07-28T15:28:18;32.10;99.90
7129;DHT22;3606;52.930;8.644;2023-07-28T15:30:44;31.60;99.90
7129;DHT22;3606;52.930;8.644;2023-07-28T15:33:13;31.20;99.90
7129;DHT22;3606;52.930;8.644;2023-07-28T15:35:40;30.90;99.90
7129;DHT22;3606;52.930;8.644;2023-07-28T15:38:06;29.90;99.90
7129;DHT22;3606;52.930;8.644;2023-07-28T15:40:31;28.80;99.90
7129;DHT22;3606;52.930;8.644;2023-07-28T15:42:58;27.90;99.90
7129;DHT22;3606;52.930;8.644;2023-07-28T15:45:24;27.30;99.90
7129;DHT22;3606;52.930;8.644;2023-07-28T15:47:50;26.70;99.90
7129;DHT22;3606;52.930;8.644;2023-07-28T15:50:15;26.10;99.90
7129;DHT22;3606;52.930;8.644;2023-07-28T15:52:41;25.60;99.90
7129;DHT22;3606;52.930;8.644;2023-07-28T15:55:06;24.90;53.10
7129;DHT22;3606;52.930;8.644;2023-07-28T15:57:32;24.30;71.90
7129;DHT22;3606;52.930;8.644;2023-07-28T15:59:58;23.70;59.90
7129;DHT22;3606;52.930;8.644;2023-07-28T16:02:23;23.60;76.00
7129;DHT22;3606;52.930;8.644;2023-07-28T16:04:49;23.50;93.20
7129;DHT22;3606;52.930;8.644;2023-07-28T16:07:15;23.90;90.50
7129;DHT22;3606;52.930;8.644;2023-07-28T16:09:41;24.50;38.70
7129;DHT22;3606;52.930;8.644;2023-07-28T16:12:09;25.00;1.00
7129;DHT22;3606;52.930;8.644;2023-07-28T16:14:35;25.60;1.00